createdAt,value
2018-06-16T00:00:35.091Z,14.39
2018-06-16T00:01:35.067Z,14.39
2018-06-16T00:02:35.064Z,14.38
2018-06-16T00:03:35.070Z,14.36
2018-06-16T00:04:35.096Z,14.35
2018-06-16T00:05:35.066Z,14.33
2018-06-16T00:06:35.213Z,14.32
2018-06-16T00:07:35.230Z,14.31
2018-06-16T00:08:35.147Z,14.29
2018-06-16T00:09:35.065Z,14.27
2018-06-16T00:10:35.064Z,14.25
2018-06-16T00:11:35.139Z,14.22
2018-06-16T00:12:35.137Z,14.20
2018-06-16T00:13:35.066Z,14.17
2018-06-16T00:14:35.017Z,14.13
2018-06-16T00:15:35.014Z,14.11
2018-06-16T00:16:35.127Z,14.11
2018-06-16T00:17:35.060Z,14.09
2018-06-16T00:18:35.059Z,14.07
2018-06-16T00:19:35.004Z,14.07
2018-06-16T00:20:35.082Z,14.07
2018-06-16T00:21:35.131Z,14.09
2018-06-16T00:22:35.134Z,14.10
2018-06-16T00:23:35.046Z,14.11
2018-06-16T00:24:35.074Z,14.13
2018-06-16T00:25:35.147Z,14.14
2018-06-16T00:26:35.154Z,14.14
2018-06-16T00:27:35.102Z,14.15
2018-06-16T00:28:35.082Z,14.15
2018-06-16T00:29:35.146Z,14.15
2018-06-16T00:30:35.082Z,14.22
2018-06-16T00:31:35.146Z,14.24
2018-06-16T00:32:35.148Z,14.24
2018-06-16T00:33:35.149Z,14.24
2018-06-16T00:34:35.087Z,14.24
2018-06-16T00:35:35.073Z,14.24
2018-06-16T00:36:35.134Z,14.22
2018-06-16T00:37:35.146Z,14.21
2018-06-16T00:38:35.147Z,14.21
2018-06-16T00:39:35.089Z,14.20
2018-06-16T00:40:35.125Z,14.20
2018-06-16T00:41:35.121Z,14.20
2018-06-16T00:42:35.183Z,14.20
2018-06-16T00:43:35.192Z,14.18
2018-06-16T00:44:35.147Z,14.18
2018-06-16T00:45:35.155Z,14.17
2018-06-16T00:46:35.095Z,14.15
2018-06-16T00:47:35.077Z,14.17
2018-06-16T00:48:35.145Z,14.18
2018-06-16T00:49:35.153Z,14.17
2018-06-16T00:50:35.120Z,14.17
2018-06-16T00:51:35.062Z,14.17
2018-06-16T00:52:35.157Z,14.18
2018-06-16T00:53:35.031Z,14.17
2018-06-16T00:54:35.153Z,14.17
2018-06-16T00:55:35.038Z,14.15
2018-06-16T00:56:35.157Z,14.15
2018-06-16T00:57:35.155Z,14.15
2018-06-16T00:58:35.083Z,14.15
2018-06-16T00:59:35.163Z,14.18
2018-06-16T01:00:35.088Z,14.18
2018-06-16T01:01:35.162Z,14.18
2018-06-16T01:02:35.160Z,14.20
2018-06-16T01:03:35.089Z,14.20
2018-06-16T01:04:35.073Z,14.20
2018-06-16T01:05:35.085Z,14.21
2018-06-16T01:06:35.166Z,14.18
2018-06-16T01:07:35.065Z,14.18
2018-06-16T01:08:35.109Z,14.17
2018-06-16T01:09:35.070Z,14.17
2018-06-16T01:10:35.148Z,14.14
2018-06-16T01:11:35.151Z,14.15
2018-06-16T01:12:35.197Z,14.14
2018-06-16T01:13:35.198Z,14.14
2018-06-16T01:14:35.139Z,14.14
2018-06-16T01:15:35.129Z,14.17
2018-06-16T01:16:35.073Z,14.17
2018-06-16T01:17:35.203Z,14.17
2018-06-16T01:18:35.130Z,14.17
2018-06-16T01:19:35.117Z,14.17
2018-06-16T01:20:35.129Z,14.15
2018-06-16T01:21:35.221Z,14.15
2018-06-16T01:22:35.144Z,14.13
2018-06-16T01:23:35.098Z,14.14
2018-06-16T01:24:35.119Z,14.13
2018-06-16T01:25:35.113Z,14.13
2018-06-16T01:26:35.182Z,14.11
2018-06-16T01:27:35.149Z,14.11
2018-06-16T01:28:35.188Z,14.11
2018-06-16T01:29:35.179Z,14.09
2018-06-16T01:30:35.124Z,14.07
2018-06-16T01:31:35.186Z,14.17
2018-06-16T01:32:35.124Z,14.21
2018-06-16T01:33:35.122Z,14.25
2018-06-16T01:34:35.172Z,14.22
2018-06-16T01:35:35.091Z,14.21
2018-06-16T01:36:35.162Z,14.21
2018-06-16T01:37:35.229Z,14.18
2018-06-16T01:38:35.088Z,14.17
2018-06-16T01:39:35.164Z,14.15
2018-06-16T01:40:35.188Z,14.15
2018-06-16T01:41:35.221Z,14.14
2018-06-16T01:42:35.190Z,14.13
2018-06-16T01:43:35.252Z,14.10
2018-06-16T01:44:35.219Z,14.10
2018-06-16T01:45:35.095Z,14.09
2018-06-16T01:46:35.134Z,14.07
2018-06-16T01:47:35.169Z,14.06
2018-06-16T01:48:35.176Z,14.04
2018-06-16T01:49:35.231Z,14.03
2018-06-16T01:50:35.241Z,14.00
2018-06-16T01:51:35.118Z,14.00
2018-06-16T01:52:35.229Z,13.98
2018-06-16T01:53:35.223Z,13.96
2018-06-16T01:54:35.122Z,13.96
2018-06-16T01:55:35.150Z,13.95
2018-06-16T01:56:35.118Z,13.92
2018-06-16T01:57:35.057Z,13.92
2018-06-16T01:58:35.106Z,13.91
2018-06-16T01:59:35.059Z,13.89
2018-06-16T02:00:35.066Z,13.88
2018-06-16T02:01:35.109Z,13.84
2018-06-16T02:02:35.107Z,13.91
2018-06-16T02:03:35.065Z,13.89
2018-06-16T02:04:35.204Z,13.92
2018-06-16T02:05:35.236Z,13.96
2018-06-16T02:06:35.204Z,14.02
2018-06-16T02:07:35.132Z,14.06
2018-06-16T02:08:35.132Z,14.11
2018-06-16T02:09:35.130Z,14.11
2018-06-16T02:10:35.179Z,14.11
2018-06-16T02:11:35.266Z,14.13
2018-06-16T02:12:35.287Z,14.15
2018-06-16T02:13:35.152Z,14.15
2018-06-16T02:14:35.130Z,14.15
2018-06-16T02:15:35.213Z,14.15
2018-06-16T02:16:35.212Z,14.14
2018-06-16T02:17:35.174Z,14.11
2018-06-16T02:18:35.237Z,14.10
2018-06-16T02:19:35.215Z,14.11
2018-06-16T02:20:35.139Z,14.11
2018-06-16T02:21:35.124Z,14.11
2018-06-16T02:22:35.136Z,14.15
2018-06-16T02:23:35.219Z,14.17
2018-06-16T02:24:35.167Z,14.17
2018-06-16T02:25:35.060Z,14.21
2018-06-16T02:26:35.165Z,14.21
2018-06-16T02:27:35.153Z,14.21
2018-06-16T02:28:35.088Z,14.21
2018-06-16T02:29:35.128Z,14.21
2018-06-16T02:30:35.129Z,14.22
2018-06-16T02:31:35.040Z,14.20
2018-06-16T02:32:35.044Z,14.20
2018-06-16T02:33:35.164Z,14.18
2018-06-16T02:34:35.229Z,14.18
2018-06-16T02:35:35.230Z,14.20
2018-06-16T02:36:35.163Z,14.21
2018-06-16T02:37:35.230Z,14.24
2018-06-16T02:38:35.183Z,14.27
2018-06-16T02:39:35.236Z,14.29
2018-06-16T02:40:35.164Z,14.29
2018-06-16T02:41:35.198Z,14.31
2018-06-16T02:42:35.243Z,14.31
2018-06-16T02:43:35.237Z,14.32
2018-06-16T02:44:35.263Z,14.31
2018-06-16T02:45:35.209Z,14.31
2018-06-16T02:46:35.207Z,14.29
2018-06-16T02:47:35.196Z,14.29
2018-06-16T02:48:35.267Z,14.27
2018-06-16T02:49:35.271Z,14.27
2018-06-16T02:50:35.342Z,14.28
2018-06-16T02:51:35.315Z,14.27
2018-06-16T02:52:35.279Z,14.27
2018-06-16T02:53:35.238Z,14.27
2018-06-16T02:54:35.223Z,14.25
2018-06-16T02:55:35.260Z,14.27
2018-06-16T02:56:35.260Z,14.25
2018-06-16T02:57:35.184Z,14.25
2018-06-16T02:58:35.285Z,14.25
2018-06-16T02:59:35.210Z,14.27
2018-06-16T03:00:35.221Z,14.31
2018-06-16T03:01:35.184Z,14.31
2018-06-16T03:02:35.281Z,14.32
2018-06-16T03:03:35.231Z,14.35
2018-06-16T03:04:35.135Z,14.36
2018-06-16T03:05:35.249Z,14.36
2018-06-16T03:06:35.181Z,14.36
2018-06-16T03:07:35.251Z,14.38
2018-06-16T03:08:35.182Z,14.39
2018-06-16T03:09:35.250Z,14.42
2018-06-16T03:10:35.256Z,14.43
2018-06-16T03:11:35.255Z,14.46
2018-06-16T03:12:35.185Z,14.51
2018-06-16T03:13:35.191Z,14.53
2018-06-16T03:14:35.179Z,14.55
2018-06-16T03:15:35.197Z,14.55
2018-06-16T03:16:35.237Z,14.54
2018-06-16T03:17:35.174Z,14.54
2018-06-16T03:18:35.159Z,14.55
2018-06-16T03:19:35.227Z,14.54
2018-06-16T03:20:35.259Z,14.53
2018-06-16T03:21:35.233Z,14.53
2018-06-16T03:22:35.162Z,14.53
2018-06-16T03:23:35.306Z,14.53
2018-06-16T03:24:35.186Z,14.53
2018-06-16T03:25:35.197Z,14.53
2018-06-16T03:26:35.254Z,14.55
2018-06-16T03:27:35.257Z,14.58
2018-06-16T03:28:35.252Z,14.61
2018-06-16T03:29:35.255Z,14.65
2018-06-16T03:30:35.197Z,14.68
2018-06-16T03:31:35.134Z,14.69
2018-06-16T03:32:35.203Z,14.71
2018-06-16T03:33:35.255Z,14.72
2018-06-16T03:34:35.266Z,14.75
2018-06-16T03:35:35.217Z,14.78
2018-06-16T03:36:35.272Z,14.80
2018-06-16T03:37:35.173Z,14.82
2018-06-16T03:38:35.188Z,14.86
2018-06-16T03:39:35.231Z,14.89
2018-06-16T03:40:35.230Z,14.92
2018-06-16T03:41:35.273Z,14.91
2018-06-16T03:42:35.308Z,14.92
2018-06-16T03:43:35.248Z,14.94
2018-06-16T03:44:35.237Z,14.96
2018-06-16T03:45:35.244Z,15.00
2018-06-16T03:46:35.175Z,15.07
2018-06-16T03:47:35.311Z,15.10
2018-06-16T03:48:35.278Z,15.14
2018-06-16T03:49:35.234Z,15.15
2018-06-16T03:50:35.241Z,15.18
2018-06-16T03:51:35.185Z,15.19
2018-06-16T03:52:35.238Z,15.21
2018-06-16T03:53:35.246Z,15.22
2018-06-16T03:54:35.270Z,15.22
2018-06-16T03:55:35.259Z,15.24
2018-06-16T03:56:35.302Z,15.25
2018-06-16T03:57:35.312Z,15.28
2018-06-16T03:58:35.304Z,15.29
2018-06-16T03:59:35.321Z,15.31
2018-06-16T04:00:35.325Z,15.32
2018-06-16T04:01:35.300Z,15.35
2018-06-16T04:02:35.285Z,15.36
2018-06-16T04:03:35.237Z,15.37
2018-06-16T04:04:35.244Z,15.37
2018-06-16T04:05:35.285Z,15.37
2018-06-16T04:06:35.263Z,15.39
2018-06-16T04:07:35.204Z,15.42
2018-06-16T04:08:35.321Z,15.42
2018-06-16T04:09:35.227Z,15.43
2018-06-16T04:10:35.272Z,15.44
2018-06-16T04:11:35.211Z,15.46
2018-06-16T04:12:35.290Z,15.48
2018-06-16T04:13:35.265Z,15.51
2018-06-16T04:14:35.321Z,15.54
2018-06-16T04:15:35.294Z,15.55
2018-06-16T04:16:35.296Z,15.58
2018-06-16T04:17:35.228Z,15.61
2018-06-16T04:18:35.294Z,15.65
2018-06-16T04:19:35.226Z,15.68
2018-06-16T04:20:35.300Z,15.70
2018-06-16T04:21:35.247Z,15.76
2018-06-16T04:22:35.317Z,15.79
2018-06-16T04:23:35.233Z,15.82
2018-06-16T04:24:35.231Z,15.86
2018-06-16T04:25:35.302Z,15.88
2018-06-16T04:26:35.234Z,15.94
2018-06-16T04:27:35.303Z,16.00
2018-06-16T04:28:35.237Z,16.07
2018-06-16T04:29:35.239Z,16.13
2018-06-16T04:30:35.303Z,16.20
2018-06-16T04:31:35.235Z,16.24
2018-06-16T04:32:35.238Z,16.28
2018-06-16T04:33:35.240Z,16.31
2018-06-16T04:34:35.324Z,16.33
2018-06-16T04:35:35.325Z,16.35
2018-06-16T04:36:35.330Z,16.35
2018-06-16T04:37:35.263Z,16.38
2018-06-16T04:38:35.211Z,16.39
2018-06-16T04:39:35.272Z,16.39
2018-06-16T04:40:35.310Z,16.41
2018-06-16T04:41:35.307Z,16.43
2018-06-16T04:42:35.352Z,16.46
2018-06-16T04:43:35.278Z,16.47
2018-06-16T04:44:35.288Z,16.47
2018-06-16T04:45:35.368Z,16.48
2018-06-16T04:46:35.237Z,16.51
2018-06-16T04:47:35.336Z,16.54
2018-06-16T04:48:35.320Z,16.55
2018-06-16T04:49:35.311Z,16.57
2018-06-16T04:50:35.220Z,16.59
2018-06-16T04:51:35.236Z,16.61
2018-06-16T04:52:35.316Z,16.63
2018-06-16T04:53:35.323Z,16.63
2018-06-16T04:54:35.305Z,16.63
2018-06-16T04:55:35.226Z,16.65
2018-06-16T04:56:35.309Z,16.66
2018-06-16T04:57:35.270Z,16.69
2018-06-16T04:58:35.270Z,16.69
2018-06-16T04:59:35.306Z,16.70
2018-06-16T05:00:35.207Z,16.72
2018-06-16T05:01:35.259Z,16.72
2018-06-16T05:02:35.333Z,16.72
2018-06-16T05:03:35.225Z,16.76
2018-06-16T05:04:35.343Z,16.80
2018-06-16T05:05:35.295Z,16.80
2018-06-16T05:06:35.306Z,16.80
2018-06-16T05:07:35.308Z,16.79
2018-06-16T05:08:35.411Z,16.79
2018-06-16T05:09:35.303Z,16.80
2018-06-16T05:10:35.364Z,16.80
2018-06-16T05:11:35.309Z,16.80
2018-06-16T05:12:35.308Z,16.81
2018-06-16T05:13:35.308Z,16.80
2018-06-16T05:14:35.356Z,16.81
2018-06-16T05:15:35.353Z,16.84
2018-06-16T05:16:35.311Z,16.84
2018-06-16T05:17:35.363Z,16.85
2018-06-16T05:18:35.333Z,16.84
2018-06-16T05:19:35.252Z,16.85
2018-06-16T05:20:35.306Z,16.85
2018-06-16T05:21:35.363Z,16.87
2018-06-16T05:22:35.255Z,16.88
2018-06-16T05:23:35.409Z,16.91
2018-06-16T05:24:35.366Z,16.92
2018-06-16T05:25:35.243Z,16.98
2018-06-16T05:26:35.322Z,16.99
2018-06-16T05:27:35.339Z,17.05
2018-06-16T05:28:35.207Z,17.06
2018-06-16T05:29:35.373Z,17.08
2018-06-16T05:30:35.337Z,17.10
2018-06-16T05:31:35.280Z,17.12
2018-06-16T05:32:35.338Z,17.14
2018-06-16T05:33:35.264Z,17.13
2018-06-16T05:34:35.212Z,17.13
2018-06-16T05:35:35.257Z,17.14
2018-06-16T05:36:35.234Z,17.14
2018-06-16T05:37:35.232Z,17.12
2018-06-16T05:38:35.335Z,17.12
2018-06-16T05:39:35.242Z,17.12
2018-06-16T05:40:35.340Z,17.12
2018-06-16T05:41:35.345Z,17.12
2018-06-16T05:42:35.344Z,17.12
2018-06-16T05:43:35.305Z,17.13
2018-06-16T05:44:35.257Z,17.16
2018-06-16T05:45:35.197Z,17.21
2018-06-16T05:46:35.146Z,17.25
2018-06-16T05:47:35.146Z,17.31
2018-06-16T05:48:35.144Z,17.37
2018-06-16T05:49:35.145Z,17.43
2018-06-16T05:50:35.143Z,17.47
2018-06-16T05:51:35.231Z,17.53
2018-06-16T05:52:35.146Z,17.57
2018-06-16T05:53:35.247Z,17.61
2018-06-16T05:54:35.150Z,17.69
2018-06-16T05:55:35.378Z,17.76
2018-06-16T05:56:35.357Z,17.83
2018-06-16T05:57:35.298Z,17.94
2018-06-16T05:58:35.358Z,18.06
2018-06-16T05:59:35.258Z,18.17
2018-06-16T06:00:35.385Z,18.36
2018-06-16T06:01:35.396Z,18.51
2018-06-16T06:02:35.280Z,18.70
2018-06-16T06:03:35.272Z,18.73
2018-06-16T06:04:35.329Z,18.90
2018-06-16T06:05:35.361Z,19.02
2018-06-16T06:06:35.294Z,19.09
2018-06-16T06:07:35.311Z,19.15
2018-06-16T06:08:35.324Z,19.16
2018-06-16T06:09:35.297Z,19.15
2018-06-16T06:10:35.381Z,19.13
2018-06-16T06:11:35.389Z,19.27
2018-06-16T06:12:35.372Z,19.28
2018-06-16T06:13:35.304Z,19.38
2018-06-16T06:14:35.302Z,19.54
2018-06-16T06:15:35.412Z,19.76
2018-06-16T06:16:35.407Z,19.98
2018-06-16T06:17:35.271Z,20.05
2018-06-16T06:18:35.456Z,20.17
2018-06-16T06:19:35.273Z,20.10
2018-06-16T06:20:35.401Z,20.01
2018-06-16T06:21:35.274Z,19.85
2018-06-16T06:22:35.378Z,19.83
2018-06-16T06:23:35.283Z,19.91
2018-06-16T06:24:35.375Z,19.96
2018-06-16T06:25:35.389Z,20.06
2018-06-16T06:26:35.397Z,20.03
2018-06-16T06:27:35.423Z,20.06
2018-06-16T06:28:35.280Z,20.18
2018-06-16T06:29:35.409Z,20.18
2018-06-16T06:30:35.417Z,20.16
2018-06-16T06:31:35.400Z,20.12
2018-06-16T06:32:35.353Z,20.10
2018-06-16T06:33:35.379Z,20.21
2018-06-16T06:34:35.356Z,20.27
2018-06-16T06:35:35.407Z,20.25
2018-06-16T06:36:35.325Z,20.34
2018-06-16T06:37:35.412Z,20.34
2018-06-16T06:38:35.389Z,20.38
2018-06-16T06:39:35.412Z,20.54
2018-06-16T06:40:35.418Z,20.46
2018-06-16T06:41:35.349Z,20.35
2018-06-16T06:42:35.323Z,20.35
2018-06-16T06:43:35.426Z,20.45
2018-06-16T06:44:35.370Z,20.66
2018-06-16T06:45:35.299Z,20.80
2018-06-16T06:46:35.314Z,20.93
2018-06-16T06:47:35.417Z,21.10
2018-06-16T06:48:35.333Z,21.27
2018-06-16T06:49:35.357Z,21.46
2018-06-16T06:50:35.414Z,21.54
2018-06-16T06:51:35.432Z,21.61
2018-06-16T06:52:35.338Z,21.53
2018-06-16T06:53:35.299Z,21.47
2018-06-16T06:54:35.430Z,21.39
2018-06-16T06:55:35.345Z,21.45
2018-06-16T06:56:35.268Z,21.42
2018-06-16T06:57:35.358Z,21.56
2018-06-16T06:58:35.328Z,21.68
2018-06-16T06:59:35.333Z,21.68
2018-06-16T07:00:35.295Z,21.68
2018-06-16T07:01:35.267Z,21.69
2018-06-16T07:02:35.289Z,21.78
2018-06-16T07:03:35.295Z,21.78
2018-06-16T07:04:35.384Z,21.65
2018-06-16T07:05:35.399Z,21.69
2018-06-16T07:06:35.342Z,21.75
2018-06-16T07:07:35.304Z,21.80
2018-06-16T07:08:35.423Z,21.78
2018-06-16T07:09:35.366Z,21.94
2018-06-16T07:10:35.422Z,21.98
2018-06-16T07:11:35.319Z,22.04
2018-06-16T07:12:35.344Z,22.24
2018-06-16T07:13:35.414Z,22.49
2018-06-16T07:14:35.311Z,22.75
2018-06-16T07:15:35.313Z,22.68
2018-06-16T07:16:35.411Z,22.86
2018-06-16T07:17:35.317Z,22.91
2018-06-16T07:18:35.339Z,23.04
2018-06-16T07:19:35.430Z,23.09
2018-06-16T07:20:35.377Z,23.22
2018-06-16T07:21:35.314Z,23.26
2018-06-16T07:22:35.435Z,23.17
2018-06-16T07:23:35.468Z,23.30
2018-06-16T07:24:35.336Z,23.49
2018-06-16T07:25:35.444Z,23.64
2018-06-16T07:26:35.437Z,23.57
2018-06-16T07:27:35.416Z,23.50
2018-06-16T07:28:35.230Z,23.60
2018-06-16T07:29:35.400Z,23.71
2018-06-16T07:30:35.453Z,23.76
2018-06-16T07:31:35.466Z,23.85
2018-06-16T07:32:35.402Z,23.67
2018-06-16T07:33:35.328Z,23.50
2018-06-16T07:34:35.454Z,23.50
2018-06-16T07:35:35.316Z,23.65
2018-06-16T07:36:35.400Z,23.67
2018-06-16T07:37:35.355Z,23.71
2018-06-16T07:38:35.401Z,23.50
2018-06-16T07:39:35.318Z,23.38
2018-06-16T07:40:35.386Z,23.37
2018-06-16T07:41:35.476Z,23.50
2018-06-16T07:42:35.293Z,23.74
2018-06-16T07:43:35.406Z,23.83
2018-06-16T07:44:35.323Z,23.87
2018-06-16T07:45:35.429Z,23.93
2018-06-16T07:46:35.365Z,24.02
2018-06-16T07:47:35.436Z,24.05
2018-06-16T07:48:35.469Z,23.64
2018-06-16T07:49:35.366Z,23.31
2018-06-16T07:50:35.432Z,23.15
2018-06-16T07:51:35.435Z,23.22
2018-06-16T07:52:35.461Z,23.45
2018-06-16T07:53:35.369Z,23.44
2018-06-16T07:54:35.437Z,23.58
2018-06-16T07:55:35.366Z,23.72
2018-06-16T07:56:35.382Z,23.97
2018-06-16T07:57:35.360Z,24.08
2018-06-16T07:58:35.384Z,24.12
2018-06-16T07:59:35.344Z,24.12
2018-06-16T08:00:35.431Z,24.00
2018-06-16T08:01:35.393Z,24.16
2018-06-16T08:02:35.369Z,24.18
2018-06-16T08:03:35.334Z,24.16
2018-06-16T08:04:35.393Z,24.26
2018-06-16T08:05:35.427Z,24.31
2018-06-16T08:06:35.439Z,24.42
2018-06-16T08:07:35.394Z,24.64
2018-06-16T08:08:35.378Z,24.82
2018-06-16T08:09:35.436Z,24.94
2018-06-16T08:10:35.352Z,24.86
2018-06-16T08:11:35.434Z,24.61
2018-06-16T08:12:35.435Z,24.64
2018-06-16T08:13:35.437Z,24.82
2018-06-16T08:14:35.369Z,24.91
2018-06-16T08:15:35.412Z,25.13
2018-06-16T08:16:35.533Z,25.17
2018-06-16T08:17:35.483Z,25.33
2018-06-16T08:18:35.420Z,25.49
2018-06-16T08:19:35.479Z,25.40
2018-06-16T08:20:35.425Z,25.00
2018-06-16T08:21:35.491Z,25.08
2018-06-16T08:22:35.479Z,25.24
2018-06-16T08:23:35.487Z,25.17
2018-06-16T08:24:35.442Z,25.02
2018-06-16T08:25:35.362Z,24.93
2018-06-16T08:26:35.361Z,24.94
2018-06-16T08:27:35.366Z,24.91
2018-06-16T08:28:35.450Z,25.08
2018-06-16T08:29:35.446Z,25.08
2018-06-16T08:30:35.352Z,24.85
2018-06-16T08:31:35.335Z,24.79
2018-06-16T08:32:35.366Z,24.78
2018-06-16T08:33:35.367Z,24.93
2018-06-16T08:34:35.454Z,25.01
2018-06-16T08:35:35.413Z,25.08
2018-06-16T08:36:35.372Z,25.33
2018-06-16T08:37:35.406Z,25.51
2018-06-16T08:38:35.370Z,25.57
2018-06-16T08:39:35.323Z,25.63
2018-06-16T08:40:35.371Z,25.66
2018-06-16T08:41:35.369Z,25.75
2018-06-16T08:42:35.371Z,25.67
2018-06-16T08:43:35.410Z,25.64
2018-06-16T08:44:35.327Z,25.73
2018-06-16T08:45:35.432Z,25.62
2018-06-16T08:46:35.471Z,25.48
2018-06-16T08:47:35.438Z,25.44
2018-06-16T08:48:35.399Z,25.53
2018-06-16T08:49:35.445Z,25.51
2018-06-16T08:50:35.476Z,25.17
2018-06-16T08:51:35.437Z,25.31
2018-06-16T08:52:35.516Z,25.45
2018-06-16T08:53:35.396Z,25.49
2018-06-16T08:54:35.380Z,25.48
2018-06-16T08:55:35.562Z,25.55
2018-06-16T08:56:35.506Z,25.66
2018-06-16T08:57:35.509Z,25.81
2018-06-16T08:58:35.475Z,25.91
2018-06-16T08:59:35.459Z,26.06
2018-06-16T09:00:35.419Z,26.40
2018-06-16T09:01:35.488Z,26.51
2018-06-16T09:02:35.459Z,26.43
2018-06-16T09:03:35.503Z,26.13
2018-06-16T09:04:35.402Z,26.19
2018-06-16T09:05:35.454Z,26.26
2018-06-16T09:06:35.481Z,26.22
2018-06-16T09:07:35.483Z,25.88
2018-06-16T09:08:35.501Z,25.92
2018-06-16T09:09:35.484Z,25.93
2018-06-16T09:10:35.484Z,25.81
2018-06-16T09:11:35.456Z,25.70
2018-06-16T09:12:35.422Z,25.75
2018-06-16T09:13:35.487Z,25.45
2018-06-16T09:14:35.423Z,25.46
2018-06-16T09:15:35.483Z,25.42
2018-06-16T09:16:35.400Z,25.22
2018-06-16T09:17:35.493Z,25.22
2018-06-16T09:18:35.427Z,25.27
2018-06-16T09:19:35.425Z,25.34
2018-06-16T09:20:35.482Z,25.33
2018-06-16T09:21:35.475Z,25.30
2018-06-16T09:22:35.507Z,25.37
2018-06-16T09:23:35.370Z,25.38
2018-06-16T09:24:35.363Z,25.53
2018-06-16T09:25:35.498Z,25.67
2018-06-16T09:26:35.429Z,25.80
2018-06-16T09:27:35.499Z,25.68
2018-06-16T09:28:35.499Z,25.70
2018-06-16T09:29:35.428Z,25.66
2018-06-16T09:30:35.465Z,25.55
2018-06-16T09:31:35.431Z,25.45
2018-06-16T09:32:35.391Z,25.31
2018-06-16T09:33:35.432Z,25.31
2018-06-16T09:34:35.504Z,25.22
2018-06-16T09:35:35.481Z,25.24
2018-06-16T09:36:35.457Z,25.22
2018-06-16T09:37:35.503Z,25.16
2018-06-16T09:38:35.427Z,25.16
2018-06-16T09:39:35.509Z,25.20
2018-06-16T09:40:35.505Z,24.97
2018-06-16T09:41:35.524Z,24.86
2018-06-16T09:42:35.530Z,24.89
2018-06-16T09:43:35.486Z,24.85
2018-06-16T09:44:35.415Z,24.82
2018-06-16T09:45:35.508Z,24.70
2018-06-16T09:46:35.422Z,24.77
2018-06-16T09:47:35.445Z,24.81
2018-06-16T09:48:35.436Z,24.94
2018-06-16T09:49:35.440Z,24.97
2018-06-16T09:50:35.414Z,25.12
2018-06-16T09:51:35.465Z,25.27
2018-06-16T09:52:35.508Z,25.40
2018-06-16T09:53:35.504Z,25.35
2018-06-16T09:54:35.537Z,25.33
2018-06-16T09:55:35.436Z,25.19
2018-06-16T09:56:35.544Z,25.27
2018-06-16T09:57:35.584Z,25.45
2018-06-16T09:58:35.506Z,25.59
2018-06-16T09:59:35.497Z,25.78
2018-06-16T10:00:35.477Z,25.95
2018-06-16T10:01:35.476Z,26.10
2018-06-16T10:02:35.485Z,26.24
2018-06-16T10:03:35.421Z,26.14
2018-06-16T10:04:35.465Z,26.21
2018-06-16T10:05:35.453Z,26.17
2018-06-16T10:06:35.455Z,26.04
2018-06-16T10:07:35.522Z,25.99
2018-06-16T10:08:35.525Z,25.92
2018-06-16T10:09:35.491Z,25.97
2018-06-16T10:10:35.460Z,25.96
2018-06-16T10:11:35.528Z,25.95
2018-06-16T10:12:35.525Z,26.03
2018-06-16T10:13:35.466Z,26.00
2018-06-16T10:14:35.532Z,26.06
2018-06-16T10:15:35.552Z,26.10
2018-06-16T10:16:35.528Z,26.07
2018-06-16T10:17:35.556Z,26.10
2018-06-16T10:18:35.489Z,26.29
2018-06-16T10:19:35.563Z,26.48
2018-06-16T10:20:35.438Z,26.66
2018-06-16T10:21:35.459Z,26.75
2018-06-16T10:22:35.433Z,26.75
2018-06-16T10:23:35.516Z,26.64
2018-06-16T10:24:35.536Z,26.56
2018-06-16T10:25:35.548Z,26.74
2018-06-16T10:26:35.535Z,26.82
2018-06-16T10:27:35.489Z,26.85
2018-06-16T10:28:35.542Z,26.99
2018-06-16T10:29:35.536Z,27.08
2018-06-16T10:30:35.475Z,27.15
2018-06-16T10:31:35.541Z,27.14
2018-06-16T10:32:35.474Z,27.07
2018-06-16T10:33:35.443Z,27.07
2018-06-16T10:34:35.544Z,27.03
2018-06-16T10:35:35.479Z,27.21
2018-06-16T10:36:35.475Z,27.25
2018-06-16T10:37:35.477Z,27.40
2018-06-16T10:38:35.535Z,27.51
2018-06-16T10:39:35.533Z,27.58
2018-06-16T10:40:35.434Z,27.50
2018-06-16T10:41:35.537Z,27.43
2018-06-16T10:42:35.545Z,27.44
2018-06-16T10:43:35.544Z,27.19
2018-06-16T10:44:35.500Z,27.17
2018-06-16T10:45:35.481Z,27.22
2018-06-16T10:46:35.548Z,27.17
2018-06-16T10:47:35.550Z,27.03
2018-06-16T10:48:35.549Z,27.15
2018-06-16T10:49:35.493Z,27.39
2018-06-16T10:50:35.566Z,27.52
2018-06-16T10:51:35.490Z,27.41
2018-06-16T10:52:35.554Z,27.52
2018-06-16T10:53:35.557Z,27.73
2018-06-16T10:54:35.485Z,27.75
2018-06-16T10:55:35.560Z,27.61
2018-06-16T10:56:35.490Z,27.46
2018-06-16T10:57:35.581Z,27.44
2018-06-16T10:58:35.490Z,27.37
2018-06-16T10:59:35.556Z,27.23
2018-06-16T11:00:35.561Z,27.28
2018-06-16T11:01:35.559Z,27.22
2018-06-16T11:02:35.565Z,27.26
2018-06-16T11:03:35.498Z,27.08
2018-06-16T11:04:35.495Z,26.90
2018-06-16T11:05:35.568Z,26.92
2018-06-16T11:06:35.560Z,26.90
2018-06-16T11:07:35.525Z,26.79
2018-06-16T11:08:35.534Z,26.96
2018-06-16T11:09:35.542Z,27.00
2018-06-16T11:10:35.504Z,26.79
2018-06-16T11:11:35.591Z,27.07
2018-06-16T11:12:35.583Z,27.08
2018-06-16T11:13:35.611Z,27.21
2018-06-16T11:14:35.527Z,27.37
2018-06-16T11:15:35.588Z,27.36
2018-06-16T11:16:35.474Z,27.30
2018-06-16T11:17:35.569Z,27.23
2018-06-16T11:18:35.505Z,27.26
2018-06-16T11:19:35.503Z,27.22
2018-06-16T11:20:35.482Z,27.25
2018-06-16T11:21:35.445Z,27.11
2018-06-16T11:22:35.478Z,26.99
2018-06-16T11:23:35.527Z,26.99
2018-06-16T11:24:35.440Z,26.92
2018-06-16T11:25:35.564Z,27.00
2018-06-16T11:26:35.576Z,27.11
2018-06-16T11:27:35.576Z,27.03
2018-06-16T11:28:35.547Z,26.92
2018-06-16T11:29:35.577Z,26.89
2018-06-16T11:30:35.562Z,26.78
2018-06-16T11:31:35.580Z,26.77
2018-06-16T11:32:35.583Z,26.78
2018-06-16T11:33:35.478Z,26.67
2018-06-16T11:34:35.658Z,26.64
2018-06-16T11:35:35.551Z,26.77
2018-06-16T11:36:35.472Z,26.74
2018-06-16T11:37:35.585Z,26.78
2018-06-16T11:38:35.519Z,26.81
2018-06-16T11:39:35.490Z,26.71
2018-06-16T11:40:35.577Z,26.71
2018-06-16T11:41:35.517Z,26.60
2018-06-16T11:42:35.482Z,26.67
2018-06-16T11:43:35.578Z,26.75
2018-06-16T11:44:35.577Z,26.81
2018-06-16T11:45:35.525Z,26.81
2018-06-16T11:46:35.524Z,26.96
2018-06-16T11:47:35.592Z,27.04
2018-06-16T11:48:35.593Z,26.90
2018-06-16T11:49:35.590Z,26.82
2018-06-16T11:50:35.596Z,26.70
2018-06-16T11:51:35.526Z,26.71
2018-06-16T11:52:35.528Z,26.68
2018-06-16T11:53:35.532Z,26.70
2018-06-16T11:54:35.530Z,26.70
2018-06-16T11:55:35.528Z,26.67
2018-06-16T11:56:35.549Z,26.77
2018-06-16T11:57:35.584Z,26.97
2018-06-16T11:58:35.494Z,26.86
2018-06-16T11:59:35.504Z,26.81
2018-06-16T12:00:35.560Z,26.81
2018-06-16T12:01:35.598Z,26.88
2018-06-16T12:02:35.524Z,26.95
2018-06-16T12:03:35.627Z,27.07
2018-06-16T12:04:35.622Z,27.10
2018-06-16T12:05:35.525Z,27.23
2018-06-16T12:06:35.513Z,27.17
2018-06-16T12:07:35.505Z,27.10
2018-06-16T12:08:35.531Z,27.28
2018-06-16T12:09:35.507Z,27.44
2018-06-16T12:10:35.561Z,27.54
2018-06-16T12:11:35.512Z,27.50
2018-06-16T12:12:35.554Z,27.57
2018-06-16T12:13:35.599Z,27.70
2018-06-16T12:14:35.499Z,27.55
2018-06-16T12:15:35.518Z,27.37
2018-06-16T12:16:35.636Z,27.44
2018-06-16T12:17:35.633Z,27.74
2018-06-16T12:18:35.638Z,28.02
2018-06-16T12:19:35.587Z,28.03
2018-06-16T12:20:35.642Z,27.99
2018-06-16T12:21:35.653Z,27.84
2018-06-16T12:22:35.570Z,27.74
2018-06-16T12:23:35.647Z,27.52
2018-06-16T12:24:35.552Z,27.59
2018-06-16T12:25:35.550Z,27.73
2018-06-16T12:26:35.615Z,27.73
2018-06-16T12:27:35.592Z,27.58
2018-06-16T12:28:35.616Z,27.63
2018-06-16T12:29:35.552Z,27.73
2018-06-16T12:30:35.576Z,27.84
2018-06-16T12:31:35.596Z,27.91
2018-06-16T12:32:35.649Z,27.99
2018-06-16T12:33:35.588Z,27.96
2018-06-16T12:34:35.539Z,27.96
2018-06-16T12:35:35.582Z,27.85
2018-06-16T12:36:35.650Z,27.71
2018-06-16T12:37:35.641Z,27.61
2018-06-16T12:38:35.533Z,27.48
2018-06-16T12:39:35.651Z,27.32
2018-06-16T12:40:35.655Z,27.11
2018-06-16T12:41:35.651Z,27.10
2018-06-16T12:42:35.580Z,27.25
2018-06-16T12:43:35.526Z,27.36
2018-06-16T12:44:35.604Z,27.40
2018-06-16T12:45:35.650Z,27.26
2018-06-16T12:46:35.632Z,27.29
2018-06-16T12:47:35.565Z,27.19
2018-06-16T12:48:35.630Z,27.18
2018-06-16T12:49:35.641Z,26.97
2018-06-16T12:50:35.568Z,26.90
2018-06-16T12:51:35.567Z,26.86
2018-06-16T12:52:35.561Z,26.81